PWSweather.com
Personal Weather Stations
Station Observations
CW4438
Little Flock, AR 72756

Little Flock, AR 72756

Lat: 36.39, Lon: -94.14

Elevation: 1278

Station Type: Davis/Vantage Pro

Latest ConditionsUpdated 3:00:09 PM CDT Friday, May 29, 2015
Currently Today's Max Today's Min Today's Average
Temperature 79.2°F26.2°C 79.2°F26.2°C 64.4°F18.0°C 69.2°F20.7°C
Dew Point 72.5°F22.5°C 72.5°F22.5°C 62.0°F16.7°C 66.7°F19.3°C
Winds 1.0 mph SE1.6 kmh SE 1.0 mph SE1.6 kmh SE - 0.1 mph 0.2 kmh
Wind Gusts 2.0 mph3.2 kmh 2.0 mph3.2 kmh - -
Humidity 80% 97% 80% 92%
Pressure 29.86 in1011.2 mb 29.97 in1014.9 mb 29.86 in1011.2 mb -
Hour Temp Dew Point Humidity Winds Wind Gusts Pressure Precip Precip Rate Daily Precip Total
03:00 PM 79.2°F26.2°C 72.5°F22.5°C 80% 1.0 mph SE1.6 kmh SE 2.0 mph3.2 kmh 29.86 in1011.2 mb 0.00 in0.0 mm 0.00 in0.0 mm 0.19 in4.8 mm
02:30 PM 78.6°F25.9°C 72.3°F22.4°C 81% 1.0 mph WSW1.6 kmh WSW 2.0 mph3.2 kmh 29.88 in1011.9 mb 0.00 in0.0 mm 0.00 in0.0 mm 0.19 in4.8 mm
02:00 PM 77.8°F25.4°C 71.5°F21.9°C 81% Calm Calm 2.0 mph3.2 kmh 29.89 in1012.2 mb 0.00 in0.0 mm 0.00 in0.0 mm 0.19 in4.8 mm
01:30 PM 76.9°F24.9°C 71.4°F21.9°C 83% Calm Calm 2.0 mph3.2 kmh 29.91 in1012.9 mb 0.00 in0.0 mm 0.00 in0.0 mm 0.19 in4.8 mm
01:00 PM 75.4°F24.1°C 71.6°F22.0°C 88% Calm Calm 2.0 mph3.2 kmh 29.92 in1013.2 mb 0.00 in0.0 mm 0.00 in0.0 mm 0.19 in4.8 mm
12:30 PM 74.8°F23.8°C 71.3°F21.8°C 89% Calm Calm 2.0 mph3.2 kmh 29.93 in1013.5 mb 0.00 in0.0 mm 0.00 in0.0 mm 0.19 in4.8 mm
12:00 PM 72.6°F22.6°C 70.5°F21.4°C 93% Calm Calm 2.0 mph3.2 kmh 29.94 in1013.9 mb 0.00 in0.0 mm 0.00 in0.0 mm 0.19 in4.8 mm
11:30 AM 72.5°F22.5°C 70.4°F21.3°C 93% Calm Calm 2.0 mph3.2 kmh 29.95 in1014.2 mb 0.00 in0.0 mm 0.00 in0.0 mm 0.19 in4.8 mm
11:00 AM 70.8°F21.6°C 69.9°F21.1°C 97% Calm Calm 2.0 mph3.2 kmh 29.96 in1014.6 mb 0.14 in3.6 mm 0.00 in0.0 mm 0.19 in4.8 mm
10:30 AM 69.3°F20.7°C 68.4°F20.2°C 97% Calm Calm 2.0 mph3.2 kmh 29.96 in1014.6 mb 0.15 in3.8 mm 0.22 in5.6 mm 0.19 in4.8 mm
10:00 AM 69.2°F20.7°C 68.0°F20.0°C 96% Calm Calm 2.0 mph3.2 kmh 29.96 in1014.6 mb 0.04 in1.0 mm 0.04 in1.0 mm 0.08 in2.0 mm
09:30 AM 69.3°F20.7°C 68.4°F20.2°C 97% Calm Calm 2.0 mph3.2 kmh 29.97 in1014.9 mb 0.02 in0.5 mm 0.00 in0.0 mm 0.06 in1.5 mm
09:00 AM 68.3°F20.2°C 67.4°F19.7°C 97% Calm Calm 2.0 mph3.2 kmh 29.96 in1014.6 mb 0.05 in1.3 mm 0.02 in0.5 mm 0.06 in1.5 mm
08:30 AM 68.0°F20.0°C 66.8°F19.3°C 96% Calm Calm 2.0 mph3.2 kmh 29.97 in1014.9 mb 0.04 in1.0 mm 0.08 in2.0 mm 0.05 in1.3 mm
08:00 AM 68.3°F20.2°C 67.4°F19.7°C 97% Calm Calm 2.0 mph3.2 kmh 29.95 in1014.2 mb 0.00 in0.0 mm 0.00 in0.0 mm 0.01 in0.3 mm
07:30 AM 67.2°F19.6°C 66.3°F19.1°C 97% Calm Calm 2.0 mph3.2 kmh 29.95 in1014.2 mb 0.00 in0.0 mm 0.00 in0.0 mm 0.01 in0.3 mm
07:00 AM 66.4°F19.1°C 65.2°F18.4°C 96% Calm Calm 2.0 mph3.2 kmh 29.94 in1013.9 mb 0.00 in0.0 mm 0.00 in0.0 mm 0.01 in0.3 mm
06:30 AM 66.0°F18.9°C 64.8°F18.2°C 96% Calm Calm 2.0 mph3.2 kmh 29.92 in1013.2 mb 0.00 in0.0 mm 0.00 in0.0 mm 0.01 in0.3 mm
06:00 AM 66.1°F18.9°C 64.3°F17.9°C 94% Calm Calm 2.0 mph3.2 kmh 29.92 in1013.2 mb 0.01 in0.3 mm 0.00 in0.0 mm 0.01 in0.3 mm
05:30 AM 66.7°F19.3°C 64.3°F17.9°C 92% Calm Calm 2.0 mph3.2 kmh 29.90 in1012.5 mb 0.01 in0.3 mm 0.02 in0.5 mm 0.01 in0.3 mm
05:00 AM 67.1°F19.5°C 64.1°F17.8°C 90% Calm Calm 2.0 mph3.2 kmh 29.90 in1012.5 mb 0.00 in0.0 mm 0.00 in0.0 mm 0.00 in0.0 mm
04:30 AM 66.0°F18.9°C 63.0°F17.2°C 90% Calm Calm 2.0 mph3.2 kmh 29.89 in1012.2 mb 0.00 in0.0 mm 0.00 in0.0 mm 0.00 in0.0 mm
04:00 AM 64.4°F18.0°C 62.0°F16.7°C 92% Calm Calm 2.0 mph3.2 kmh 29.89 in1012.2 mb 0.00 in0.0 mm 0.00 in0.0 mm 0.00 in0.0 mm
03:30 AM 64.4°F18.0°C 62.0°F16.7°C 92% Calm Calm 2.0 mph3.2 kmh 29.89 in1012.2 mb 0.00 in0.0 mm 0.00 in0.0 mm 0.00 in0.0 mm
03:00 AM 64.9°F18.3°C 62.2°F16.8°C 91% Calm Calm 2.0 mph3.2 kmh 29.91 in1012.9 mb 0.00 in0.0 mm 0.00 in0.0 mm 0.00 in0.0 mm
02:30 AM 65.4°F18.6°C 62.4°F16.9°C 90% Calm Calm 2.0 mph3.2 kmh 29.92 in1013.2 mb 0.00 in0.0 mm 0.00 in0.0 mm 0.00 in0.0 mm
02:00 AM 65.4°F18.6°C 62.7°F17.1°C 91% Calm Calm 2.0 mph3.2 kmh 29.91 in1012.9 mb 0.00 in0.0 mm 0.00 in0.0 mm 0.00 in0.0 mm
01:30 AM 66.1°F18.9°C 63.4°F17.4°C 91% Calm Calm 2.0 mph3.2 kmh 29.92 in1013.2 mb 0.00 in0.0 mm 0.00 in0.0 mm 0.00 in0.0 mm
01:00 AM 65.7°F18.7°C 63.6°F17.6°C 93% Calm Calm 2.0 mph3.2 kmh 29.94 in1013.9 mb 0.00 in0.0 mm 0.00 in0.0 mm 0.00 in0.0 mm
12:30 AM 65.5°F18.6°C 63.7°F17.6°C 94% Calm Calm 2.0 mph3.2 kmh 29.96 in1014.6 mb 0.00 in0.0 mm 0.00 in0.0 mm 0.00 in0.0 mm
12:00 AM 66.3°F19.1°C 64.5°F18.1°C 94% Calm Calm 2.0 mph3.2 kmh 29.97 in1014.9 mb 0.00 in0.0 mm 0.00 in0.0 mm 0.00 in0.0 mm